createdAt,value
2023-12-30T00:01:30.996Z,53.39
2023-12-30T00:03:59.153Z,53.30
2023-12-30T00:06:27.116Z,52.76
2023-12-30T00:08:55.056Z,52.51
2023-12-30T00:11:23.009Z,53.01
2023-12-30T00:13:51.054Z,52.91
2023-12-30T00:16:19.092Z,52.89
2023-12-30T00:18:48.551Z,52.37
2023-12-30T00:21:20.237Z,52.86
2023-12-30T00:23:48.374Z,52.28
2023-12-30T00:26:22.853Z,52.23
2023-12-30T00:29:02.730Z,52.49
2023-12-30T00:31:32.339Z,52.36
2023-12-30T00:34:03.052Z,52.82
2023-12-30T00:36:31.746Z,53.13
2023-12-30T00:38:59.734Z,53.35
2023-12-30T00:41:28.135Z,53.80
2023-12-30T00:43:56.496Z,53.96
2023-12-30T00:46:24.466Z,54.08
2023-12-30T00:48:57.315Z,54.64
2023-12-30T00:51:28.650Z,54.86
2023-12-30T00:53:56.553Z,54.96
2023-12-30T00:56:24.582Z,54.54
2023-12-30T00:58:52.743Z,54.56
2023-12-30T01:01:20.883Z,54.98
2023-12-30T01:03:49.143Z,55.16
2023-12-30T01:06:17.193Z,55.22
2023-12-30T01:08:46.912Z,55.43
2023-12-30T01:11:15.747Z,55.50
2023-12-30T01:13:43.723Z,55.59
2023-12-30T01:16:11.755Z,55.23
2023-12-30T01:18:39.862Z,55.11
2023-12-30T01:21:07.840Z,55.34
2023-12-30T01:23:35.968Z,55.37
2023-12-30T01:26:05.521Z,55.33
2023-12-30T01:28:35.206Z,55.50
2023-12-30T01:31:03.918Z,55.66
2023-12-30T01:33:32.144Z,55.69
2023-12-30T01:36:00.392Z,55.49
2023-12-30T01:38:28.310Z,55.43
2023-12-30T01:40:56.737Z,54.62
2023-12-30T01:43:27.398Z,54.38
2023-12-30T01:45:59.192Z,54.05
2023-12-30T01:48:29.715Z,53.46
2023-12-30T01:50:59.284Z,53.15
2023-12-30T01:53:29.272Z,53.35
2023-12-30T01:55:59.333Z,53.34
2023-12-30T01:58:29.769Z,52.97
2023-12-30T02:00:59.245Z,52.88
2023-12-30T02:03:27.529Z,53.16
2023-12-30T02:05:55.627Z,52.67
2023-12-30T02:08:23.666Z,52.63
2023-12-30T02:10:51.718Z,52.69
2023-12-30T02:13:19.696Z,52.28
2023-12-30T02:15:49.005Z,52.23
2023-12-30T02:18:17.281Z,51.89
2023-12-30T02:20:45.829Z,52.24
2023-12-30T02:23:15.216Z,52.01
2023-12-30T02:25:45.169Z,52.11
2023-12-30T02:28:13.392Z,52.02
2023-12-30T02:30:41.407Z,52.14
2023-12-30T02:33:09.644Z,51.82
2023-12-30T02:35:37.735Z,52.36
2023-12-30T02:38:06.208Z,53.13
2023-12-30T02:40:35.494Z,52.36
2023-12-30T02:43:03.685Z,52.28
2023-12-30T02:45:31.844Z,52.25
2023-12-30T02:47:59.819Z,52.73
2023-12-30T02:50:27.864Z,52.85
2023-12-30T02:52:56.507Z,53.04
2023-12-30T02:55:24.488Z,53.10
2023-12-30T02:57:54.258Z,53.19
2023-12-30T03:00:22.208Z,53.05
2023-12-30T03:02:50.257Z,53.75
2023-12-30T03:05:18.977Z,53.67
2023-12-30T03:07:47.165Z,53.92
2023-12-30T03:10:15.411Z,54.15
2023-12-30T03:12:43.485Z,54.10
2023-12-30T03:15:12.898Z,54.25
2023-12-30T03:17:41.088Z,54.38
2023-12-30T03:20:11.113Z,54.55
2023-12-30T03:22:39.347Z,54.73
2023-12-30T03:25:07.893Z,54.88
2023-12-30T03:27:38.042Z,55.17
2023-12-30T03:30:07.206Z,55.31
2023-12-30T03:32:36.708Z,55.10
2023-12-30T03:35:05.366Z,54.94
2023-12-30T03:37:33.634Z,54.78
2023-12-30T03:40:01.877Z,54.76
2023-12-30T03:42:30.022Z,54.36
2023-12-30T03:44:58.755Z,54.01
2023-12-30T03:47:26.772Z,53.51
2023-12-30T03:49:56.128Z,53.51
2023-12-30T03:52:24.092Z,53.23
2023-12-30T03:54:53.401Z,52.96
2023-12-30T03:57:21.525Z,53.47
2023-12-30T03:59:49.647Z,52.70
2023-12-30T04:02:19.215Z,53.02
2023-12-30T04:04:47.268Z,52.53
2023-12-30T04:07:16.637Z,52.54
2023-12-30T04:09:44.898Z,52.28
2023-12-30T04:12:13.348Z,52.34
2023-12-30T04:14:41.292Z,52.60
2023-12-30T04:17:09.267Z,52.86
2023-12-30T04:19:37.578Z,53.25
2023-12-30T04:22:05.961Z,53.50
2023-12-30T04:24:35.222Z,53.91
2023-12-30T04:27:03.150Z,53.47
2023-12-30T04:29:31.185Z,52.62
2023-12-30T04:31:59.455Z,52.72
2023-12-30T04:34:27.546Z,53.44
2023-12-30T04:36:55.668Z,52.15
2023-12-30T04:39:23.985Z,52.51
2023-12-30T04:41:58.638Z,52.47
2023-12-30T04:44:26.636Z,52.07
2023-12-30T04:46:54.519Z,52.67
2023-12-30T04:49:22.548Z,52.64
2023-12-30T04:51:50.710Z,51.87
2023-12-30T04:54:18.681Z,51.05
2023-12-30T04:56:46.637Z,51.51
2023-12-30T04:59:15.909Z,51.33
2023-12-30T05:01:43.895Z,51.16
2023-12-30T05:04:12.248Z,50.98
2023-12-30T05:06:40.272Z,50.97
2023-12-30T05:09:09.980Z,49.98
2023-12-30T05:11:37.997Z,49.70
2023-12-30T05:14:05.948Z,49.35
2023-12-30T05:16:36.222Z,48.96
2023-12-30T05:19:04.342Z,49.52
2023-12-30T05:21:32.300Z,49.55
2023-12-30T05:24:00.184Z,48.84
2023-12-30T05:26:28.131Z,48.88
2023-12-30T05:28:56.790Z,49.26
2023-12-30T05:31:24.689Z,49.12
2023-12-30T05:33:54.064Z,49.86
2023-12-30T05:36:22.133Z,49.24
2023-12-30T05:38:50.139Z,49.09
2023-12-30T05:41:18.169Z,49.16
2023-12-30T05:43:46.214Z,49.17
2023-12-30T05:46:18.199Z,49.71
2023-12-30T05:48:46.215Z,50.04
2023-12-30T05:51:15.514Z,50.00
2023-12-30T05:53:43.377Z,50.47
2023-12-30T05:56:11.299Z,51.03
2023-12-30T05:58:39.708Z,50.77
2023-12-30T06:01:07.668Z,50.98
2023-12-30T06:03:36.606Z,51.35
2023-12-30T06:06:05.545Z,51.68
2023-12-30T06:08:35.077Z,51.62
2023-12-30T06:11:03.528Z,51.84
2023-12-30T06:13:32.538Z,51.91
2023-12-30T06:16:00.546Z,51.86
2023-12-30T06:18:32.122Z,52.19
2023-12-30T06:21:00.648Z,52.10
2023-12-30T06:23:29.957Z,52.14
2023-12-30T06:25:59.333Z,52.39
2023-12-30T06:28:27.579Z,52.27
2023-12-30T06:30:56.175Z,52.44
2023-12-30T06:33:25.672Z,52.47
2023-12-30T06:35:53.881Z,52.08
2023-12-30T06:38:21.864Z,52.58
2023-12-30T06:40:49.812Z,52.88
2023-12-30T06:43:19.124Z,53.09
2023-12-30T06:45:47.045Z,53.22
2023-12-30T06:48:17.861Z,53.35
2023-12-30T06:50:46.979Z,53.48
2023-12-30T06:53:14.964Z,53.22
2023-12-30T06:55:47.965Z,53.11
2023-12-30T06:58:16.549Z,53.56
2023-12-30T07:00:45.984Z,53.60
2023-12-30T07:03:14.947Z,54.16
2023-12-30T07:05:42.937Z,54.07
2023-12-30T07:08:10.921Z,54.23
2023-12-30T07:10:39.212Z,54.44
2023-12-30T07:13:07.835Z,54.73
2023-12-30T07:15:36.032Z,54.62
2023-12-30T07:18:06.236Z,54.68
2023-12-30T07:20:35.843Z,54.75
2023-12-30T07:23:05.583Z,54.65
2023-12-30T07:25:34.065Z,54.91
2023-12-30T07:28:02.105Z,54.52
2023-12-30T07:30:30.766Z,54.05
2023-12-30T07:32:58.822Z,55.21
2023-12-30T07:35:28.969Z,54.19
2023-12-30T07:37:56.940Z,53.38
2023-12-30T07:40:26.310Z,50.65
2023-12-30T07:42:56.287Z,48.69
2023-12-30T07:45:24.192Z,47.24
2023-12-30T07:47:52.158Z,46.93
2023-12-30T07:50:20.241Z,46.12
2023-12-30T07:52:50.554Z,45.79
2023-12-30T07:55:18.855Z,46.69
2023-12-30T07:57:46.762Z,46.78
2023-12-30T08:00:15.899Z,45.38
2023-12-30T08:02:45.530Z,44.48
2023-12-30T08:05:13.561Z,42.25
2023-12-30T08:07:41.583Z,40.87
2023-12-30T08:10:12.420Z,38.48
2023-12-30T08:12:40.535Z,37.02
2023-12-30T08:15:11.998Z,36.03
2023-12-30T08:17:40.087Z,35.40
2023-12-30T08:20:09.355Z,34.61
2023-12-30T08:22:37.334Z,33.31
2023-12-30T08:25:06.070Z,33.04
2023-12-30T08:27:35.402Z,32.34
2023-12-30T08:30:03.400Z,31.51
2023-12-30T08:32:32.224Z,30.40
2023-12-30T08:35:03.348Z,30.20
2023-12-30T08:37:31.479Z,30.01
2023-12-30T08:39:59.508Z,29.30
2023-12-30T08:42:35.241Z,28.90
2023-12-30T08:45:06.564Z,28.63
2023-12-30T08:47:35.914Z,29.02
2023-12-30T08:50:05.094Z,28.81
2023-12-30T08:52:33.194Z,28.63
2023-12-30T08:55:01.642Z,28.52
2023-12-30T08:57:29.629Z,27.44
2023-12-30T08:59:57.555Z,27.17
2023-12-30T09:02:26.767Z,27.53
2023-12-30T09:04:57.561Z,27.73
2023-12-30T09:07:25.725Z,26.86
2023-12-30T09:09:53.751Z,26.88
2023-12-30T09:12:21.658Z,27.24
2023-12-30T09:14:49.593Z,26.09
2023-12-30T09:17:17.862Z,26.38
2023-12-30T09:19:47.321Z,26.39
2023-12-30T09:22:16.062Z,26.25
2023-12-30T09:24:44.446Z,26.17
2023-12-30T09:27:12.430Z,25.69
2023-12-30T09:29:40.386Z,25.96
2023-12-30T09:32:08.662Z,25.67
2023-12-30T09:34:41.998Z,25.22
2023-12-30T09:37:16.047Z,24.89
2023-12-30T09:39:44.294Z,25.93
2023-12-30T09:42:12.250Z,25.32
2023-12-30T09:44:41.652Z,26.02
2023-12-30T09:47:11.590Z,25.83
2023-12-30T09:49:39.975Z,24.89
2023-12-30T09:52:08.885Z,25.62
2023-12-30T09:54:48.331Z,26.03
2023-12-30T09:57:18.014Z,25.34
2023-12-30T09:59:49.066Z,24.65
2023-12-30T10:02:17.168Z,25.02
2023-12-30T10:04:45.943Z,25.56
2023-12-30T10:07:14.710Z,25.11
2023-12-30T10:09:44.708Z,25.06
2023-12-30T10:12:12.674Z,24.80
2023-12-30T10:14:40.683Z,25.28
2023-12-30T10:17:09.810Z,24.42
2023-12-30T10:19:38.082Z,24.45
2023-12-30T10:22:06.603Z,25.06
2023-12-30T10:24:34.601Z,25.42
2023-12-30T10:27:05.863Z,25.25
2023-12-30T10:29:46.114Z,24.90
2023-12-30T10:32:22.838Z,24.39
2023-12-30T10:34:51.163Z,24.22
2023-12-30T10:37:19.388Z,24.74
2023-12-30T10:39:50.865Z,24.35
2023-12-30T10:42:20.257Z,25.42
2023-12-30T10:44:48.239Z,25.54
2023-12-30T10:47:17.637Z,25.84
2023-12-30T10:49:53.485Z,25.80
2023-12-30T10:52:27.711Z,26.11
2023-12-30T10:55:06.276Z,25.38
2023-12-30T10:57:38.707Z,25.48
2023-12-30T11:00:10.533Z,25.50
2023-12-30T11:02:39.963Z,27.04
2023-12-30T11:05:13.881Z,27.81
2023-12-30T11:07:42.868Z,28.44
2023-12-30T11:10:18.532Z,28.98
2023-12-30T11:12:48.255Z,29.78
2023-12-30T11:15:27.267Z,30.75
2023-12-30T11:17:55.333Z,31.34
2023-12-30T11:20:26.848Z,32.15
2023-12-30T11:22:56.534Z,32.70
2023-12-30T11:25:24.626Z,32.86
2023-12-30T11:27:55.576Z,33.35
2023-12-30T11:30:28.047Z,34.02
2023-12-30T11:32:59.234Z,34.21
2023-12-30T11:35:28.354Z,34.64
2023-12-30T11:37:59.639Z,35.29
2023-12-30T11:40:31.617Z,35.34
2023-12-30T11:43:00.993Z,35.81
2023-12-30T11:45:29.253Z,36.21
2023-12-30T11:47:57.941Z,36.24
2023-12-30T11:50:25.950Z,36.83
2023-12-30T11:52:54.489Z,37.54
2023-12-30T11:55:23.719Z,39.06
2023-12-30T11:57:52.276Z,37.55
2023-12-30T12:00:22.637Z,37.41
2023-12-30T12:02:51.178Z,36.49
2023-12-30T12:05:19.387Z,36.33
2023-12-30T12:07:47.426Z,36.68
2023-12-30T12:10:15.934Z,36.76
2023-12-30T12:12:46.593Z,36.33
2023-12-30T12:15:15.120Z,36.28
2023-12-30T12:17:44.742Z,36.83
2023-12-30T12:20:12.846Z,35.92
2023-12-30T12:22:40.930Z,36.76
2023-12-30T12:25:10.779Z,36.93
2023-12-30T12:27:38.959Z,37.27
2023-12-30T12:30:10.021Z,37.40
2023-12-30T12:32:38.317Z,37.82
2023-12-30T12:35:08.550Z,37.87
2023-12-30T12:37:38.194Z,38.22
2023-12-30T12:40:11.854Z,38.44
2023-12-30T12:42:40.238Z,38.12
2023-12-30T12:45:09.656Z,37.84
2023-12-30T12:47:37.910Z,38.00
2023-12-30T12:50:08.738Z,38.08
2023-12-30T12:52:36.890Z,38.08
2023-12-30T12:55:05.457Z,38.27
2023-12-30T12:57:33.467Z,38.83
2023-12-30T13:00:02.176Z,38.64
2023-12-30T13:02:30.600Z,38.18
2023-12-30T13:04:58.600Z,37.58
2023-12-30T13:07:27.861Z,37.77
2023-12-30T13:10:00.457Z,38.21
2023-12-30T13:12:28.457Z,38.63
2023-12-30T13:14:59.767Z,39.37
2023-12-30T13:17:27.885Z,39.82
2023-12-30T13:19:55.915Z,39.83
2023-12-30T13:22:24.533Z,40.10
2023-12-30T13:24:53.862Z,40.20
2023-12-30T13:27:24.220Z,40.11
2023-12-30T13:29:52.257Z,40.30
2023-12-30T13:32:21.986Z,40.77
2023-12-30T13:34:52.971Z,41.69
2023-12-30T13:37:21.030Z,41.50
2023-12-30T13:39:48.998Z,41.18
2023-12-30T13:42:18.315Z,41.92
2023-12-30T13:44:47.423Z,41.91
2023-12-30T13:47:38.966Z,42.08
2023-12-30T13:50:15.001Z,42.38
2023-12-30T13:52:44.067Z,42.87
2023-12-30T13:55:14.296Z,42.41
2023-12-30T13:57:44.044Z,43.29
2023-12-30T14:00:14.835Z,43.42
2023-12-30T14:02:44.825Z,42.79
2023-12-30T14:05:18.890Z,43.29
2023-12-30T14:07:47.063Z,44.22
2023-12-30T14:10:19.636Z,43.72
2023-12-30T14:12:50.265Z,43.25
2023-12-30T14:15:19.246Z,43.90
2023-12-30T14:17:47.711Z,43.23
2023-12-30T14:20:15.896Z,43.93
2023-12-30T14:22:43.882Z,44.20
2023-12-30T14:25:12.704Z,44.09
2023-12-30T14:27:41.625Z,44.10
2023-12-30T14:30:13.165Z,45.09
2023-12-30T14:32:43.116Z,44.37
2023-12-30T14:35:11.573Z,44.44
2023-12-30T14:37:40.413Z,44.51
2023-12-30T14:40:09.971Z,44.53
2023-12-30T14:42:37.964Z,45.06
2023-12-30T14:45:08.967Z,45.12
2023-12-30T14:47:42.006Z,45.02
2023-12-30T14:50:10.379Z,45.00
2023-12-30T14:52:39.239Z,45.39
2023-12-30T14:55:10.039Z,45.65
2023-12-30T14:57:39.613Z,45.64
2023-12-30T15:00:14.050Z,45.57
2023-12-30T15:02:43.909Z,45.69
2023-12-30T15:05:15.118Z,45.89
2023-12-30T15:07:45.319Z,46.37
2023-12-30T15:10:15.429Z,46.08
2023-12-30T15:12:45.628Z,46.22
2023-12-30T15:15:13.677Z,46.33
2023-12-30T15:17:43.311Z,46.26
2023-12-30T15:20:13.189Z,46.70
2023-12-30T15:22:41.683Z,46.91
2023-12-30T15:25:12.417Z,47.56
2023-12-30T15:27:41.672Z,47.53
2023-12-30T15:30:11.199Z,47.92
2023-12-30T15:32:40.514Z,49.42
2023-12-30T15:35:11.464Z,48.38
2023-12-30T15:37:41.622Z,48.17
2023-12-30T15:40:12.508Z,48.41
2023-12-30T15:42:40.574Z,49.08
2023-12-30T15:45:09.064Z,49.51
2023-12-30T15:47:37.608Z,50.82
2023-12-30T15:50:06.501Z,51.36
2023-12-30T15:52:35.913Z,51.10
2023-12-30T15:55:04.664Z,51.45
2023-12-30T15:57:33.991Z,51.62
2023-12-30T16:00:01.937Z,52.11
2023-12-30T16:02:32.945Z,52.29
2023-12-30T16:05:00.985Z,52.18
2023-12-30T16:07:29.151Z,52.54
2023-12-30T16:09:58.983Z,52.95
2023-12-30T16:12:27.043Z,52.43
2023-12-30T16:14:54.949Z,52.16
2023-12-30T16:17:22.959Z,54.62
2023-12-30T16:19:51.464Z,52.82
2023-12-30T16:22:19.368Z,51.88
2023-12-30T16:24:47.265Z,51.16
2023-12-30T16:27:17.060Z,51.16
2023-12-30T16:29:46.083Z,51.76
2023-12-30T16:32:15.744Z,51.84
2023-12-30T16:34:43.678Z,52.03
2023-12-30T16:37:12.198Z,52.28
2023-12-30T16:39:41.992Z,52.13
2023-12-30T16:42:09.971Z,52.81
2023-12-30T16:44:41.849Z,52.87
2023-12-30T16:47:09.884Z,52.84
2023-12-30T16:49:37.945Z,52.88
2023-12-30T16:52:06.502Z,53.06
2023-12-30T16:54:34.464Z,53.79
2023-12-30T16:57:02.568Z,53.23
2023-12-30T16:59:32.426Z,54.44
2023-12-30T17:02:01.757Z,55.15
2023-12-30T17:04:29.855Z,56.26
2023-12-30T17:06:58.860Z,58.19
2023-12-30T17:09:27.100Z,58.20
2023-12-30T17:11:55.081Z,58.28
2023-12-30T17:14:23.074Z,58.07
2023-12-30T17:16:51.002Z,57.15
2023-12-30T17:19:20.473Z,57.49
2023-12-30T17:21:48.553Z,56.43
2023-12-30T17:24:18.075Z,56.39
2023-12-30T17:26:45.992Z,56.58
2023-12-30T17:29:13.920Z,56.11
2023-12-30T17:31:41.940Z,56.83
2023-12-30T17:34:10.707Z,55.47
2023-12-30T17:36:40.304Z,55.78
2023-12-30T17:39:08.822Z,55.58
2023-12-30T17:41:36.732Z,55.82
2023-12-30T17:44:05.715Z,55.23
2023-12-30T17:46:33.988Z,55.88
2023-12-30T17:49:02.383Z,55.79
2023-12-30T17:51:30.490Z,56.19
2023-12-30T17:53:59.807Z,56.55
2023-12-30T17:56:29.837Z,56.24
2023-12-30T17:58:57.974Z,56.42
2023-12-30T18:01:26.650Z,56.29
2023-12-30T18:03:54.852Z,56.84
2023-12-30T18:06:22.836Z,56.87
2023-12-30T18:08:50.875Z,57.08
2023-12-30T18:11:20.116Z,57.09
2023-12-30T18:13:48.169Z,57.52
2023-12-30T18:16:16.217Z,57.66
2023-12-30T18:18:44.193Z,57.63
2023-12-30T18:21:12.142Z,58.12
2023-12-30T18:23:40.056Z,58.21
2023-12-30T18:26:12.274Z,57.09
2023-12-30T18:28:41.798Z,56.75
2023-12-30T18:31:10.017Z,56.92
2023-12-30T18:33:38.031Z,57.15
2023-12-30T18:36:07.487Z,56.96
2023-12-30T18:38:35.375Z,57.45
2023-12-30T18:41:03.368Z,57.60
2023-12-30T18:43:31.387Z,57.19
2023-12-30T18:46:02.268Z,57.91
2023-12-30T18:48:30.351Z,57.72
2023-12-30T18:50:58.327Z,58.02
2023-12-30T18:53:26.216Z,58.18
2023-12-30T18:55:54.625Z,57.95
2023-12-30T18:58:22.552Z,58.10
2023-12-30T19:00:51.485Z,57.89
2023-12-30T19:03:20.802Z,57.70
2023-12-30T19:05:49.013Z,58.15
2023-12-30T19:08:17.689Z,58.01
2023-12-30T19:10:45.732Z,58.20
2023-12-30T19:13:13.933Z,58.07
2023-12-30T19:15:41.950Z,57.84
2023-12-30T19:18:09.970Z,57.96
2023-12-30T19:20:39.247Z,58.11
2023-12-30T19:23:08.416Z,58.08
2023-12-30T19:25:36.352Z,57.88
2023-12-30T19:28:05.616Z,57.84
2023-12-30T19:30:33.884Z,58.62
2023-12-30T19:33:04.430Z,57.28
2023-12-30T19:35:34.130Z,57.71
2023-12-30T19:38:03.921Z,58.26
2023-12-30T19:40:31.855Z,59.79
2023-12-30T19:42:59.850Z,61.17
2023-12-30T19:45:27.853Z,62.33
2023-12-30T19:47:55.850Z,63.13
2023-12-30T19:50:23.806Z,64.12
2023-12-30T19:52:52.068Z,64.04
2023-12-30T19:55:21.395Z,63.25
2023-12-30T19:57:49.583Z,61.18
2023-12-30T20:00:18.351Z,60.67
2023-12-30T20:02:47.790Z,60.36
2023-12-30T20:05:16.434Z,59.63
2023-12-30T20:07:45.193Z,60.60
2023-12-30T20:10:13.485Z,60.93
2023-12-30T20:12:43.758Z,61.14
2023-12-30T20:15:11.763Z,62.02
2023-12-30T20:17:39.813Z,60.29
2023-12-30T20:20:09.630Z,60.45
2023-12-30T20:22:37.674Z,59.67
2023-12-30T20:25:06.935Z,59.17
2023-12-30T20:27:34.902Z,59.40
2023-12-30T20:30:05.882Z,59.66
2023-12-30T20:32:34.104Z,59.55
2023-12-30T20:35:02.255Z,59.59
2023-12-30T20:37:30.378Z,59.90
2023-12-30T20:39:59.326Z,60.35
2023-12-30T20:42:30.023Z,60.18
2023-12-30T20:44:58.136Z,59.87
2023-12-30T20:47:27.451Z,60.30
2023-12-30T20:49:55.728Z,59.86
2023-12-30T20:52:23.921Z,59.88
2023-12-30T20:54:52.085Z,60.26
2023-12-30T20:57:20.046Z,59.98
2023-12-30T20:59:47.995Z,59.57
2023-12-30T21:02:17.454Z,58.99
2023-12-30T21:04:46.737Z,59.12
2023-12-30T21:07:14.784Z,59.22
2023-12-30T21:09:42.906Z,59.20
2023-12-30T21:12:10.905Z,58.97
2023-12-30T21:14:38.896Z,59.07
2023-12-30T21:17:07.102Z,59.31
2023-12-30T21:19:35.463Z,59.13
2023-12-30T21:22:06.267Z,59.80
2023-12-30T21:24:34.299Z,60.96
2023-12-30T21:27:02.266Z,61.53
2023-12-30T21:29:30.184Z,60.53
2023-12-30T21:31:58.236Z,61.58
2023-12-30T21:34:26.762Z,61.45
2023-12-30T21:36:55.120Z,61.60
2023-12-30T21:39:24.495Z,62.59
2023-12-30T21:41:52.380Z,61.45
2023-12-30T21:44:21.233Z,62.89
2023-12-30T21:46:49.336Z,61.64
2023-12-30T21:49:17.478Z,61.24
2023-12-30T21:51:47.063Z,61.70
2023-12-30T21:54:15.565Z,61.42
2023-12-30T21:56:44.904Z,60.54
2023-12-30T21:59:12.844Z,60.38
2023-12-30T22:01:40.927Z,60.99
2023-12-30T22:04:09.074Z,62.05
2023-12-30T22:06:37.112Z,61.58
2023-12-30T22:09:05.965Z,60.89
2023-12-30T22:11:34.213Z,60.75
2023-12-30T22:14:03.959Z,60.83
2023-12-30T22:16:31.891Z,60.31
2023-12-30T22:19:00.026Z,60.97
2023-12-30T22:21:29.009Z,60.53
2023-12-30T22:23:57.007Z,60.79
2023-12-30T22:26:24.932Z,60.81
2023-12-30T22:28:53.021Z,60.12
2023-12-30T22:31:22.459Z,60.28
2023-12-30T22:33:50.564Z,60.70
2023-12-30T22:36:28.132Z,60.14
2023-12-30T22:38:56.394Z,61.50
2023-12-30T22:41:24.333Z,63.99
2023-12-30T22:43:52.229Z,62.96
2023-12-30T22:46:20.208Z,62.67
2023-12-30T22:48:49.910Z,62.85
2023-12-30T22:51:17.913Z,64.36
2023-12-30T22:53:45.771Z,64.45
2023-12-30T22:56:14.258Z,64.00
2023-12-30T22:58:42.220Z,63.85
2023-12-30T23:01:10.268Z,62.47
2023-12-30T23:03:40.298Z,62.73
2023-12-30T23:06:10.236Z,62.62
2023-12-30T23:08:38.197Z,62.97
2023-12-30T23:11:06.157Z,62.83
2023-12-30T23:13:34.123Z,62.92
2023-12-30T23:16:02.684Z,61.29
2023-12-30T23:18:30.749Z,60.99
2023-12-30T23:20:58.904Z,60.69
2023-12-30T23:23:28.208Z,60.17
2023-12-30T23:25:56.094Z,60.95
2023-12-30T23:28:24.050Z,60.60
2023-12-30T23:30:52.480Z,60.05
2023-12-30T23:33:20.539Z,60.16
2023-12-30T23:35:49.001Z,60.27
2023-12-30T23:38:16.982Z,60.19
2023-12-30T23:40:46.394Z,60.39
2023-12-30T23:43:14.462Z,59.98
2023-12-30T23:45:42.392Z,60.25
2023-12-30T23:48:10.463Z,59.71
2023-12-30T23:50:38.512Z,59.83
2023-12-30T23:53:06.668Z,59.74
2023-12-30T23:55:34.821Z,60.13
2023-12-30T23:58:04.631Z,59.56
